createdAt,value
2016-02-10T00:00:40.042Z,0
2016-02-10T00:01:39.967Z,0
2016-02-10T00:02:39.923Z,0
2016-02-10T00:03:39.894Z,0
2016-02-10T00:04:39.069Z,0
2016-02-10T00:05:39.823Z,0
2016-02-10T00:06:39.716Z,0
2016-02-10T00:07:39.657Z,0
2016-02-10T00:08:39.583Z,0
2016-02-10T00:09:39.554Z,0
2016-02-10T00:10:39.480Z,0
2016-02-10T00:11:39.420Z,0
2016-02-10T00:12:39.547Z,0
2016-02-10T00:13:39.769Z,0
2016-02-10T00:14:39.569Z,0
2016-02-10T00:15:39.290Z,0
2016-02-10T00:16:39.173Z,0
2016-02-10T00:17:39.098Z,0
2016-02-10T00:18:39.023Z,0
2016-02-10T00:19:39.072Z,0
2016-02-10T00:20:39.184Z,0
2016-02-10T00:21:39.250Z,0
2016-02-10T00:22:39.205Z,0
2016-02-10T00:23:39.130Z,0
2016-02-10T00:24:39.074Z,0
2016-02-10T00:25:38.639Z,0
2016-02-10T00:26:38.596Z,0
2016-02-10T00:27:38.535Z,0
2016-02-10T00:28:38.475Z,0
2016-02-10T00:29:38.415Z,0
2016-02-10T00:30:38.340Z,0
2016-02-10T00:31:38.295Z,0
2016-02-10T00:32:38.252Z,0
2016-02-10T00:33:38.193Z,0
2016-02-10T00:34:38.133Z,0
2016-02-10T00:35:38.089Z,0
2016-02-10T00:36:38.263Z,0
2016-02-10T00:37:37.985Z,0
2016-02-10T00:38:37.956Z,0
2016-02-10T00:39:37.865Z,0
2016-02-10T00:40:37.840Z,0
2016-02-10T00:41:37.936Z,0
2016-02-10T00:42:37.986Z,0
2016-02-10T00:43:37.801Z,0
2016-02-10T00:44:37.772Z,0
2016-02-10T00:45:37.901Z,0
2016-02-10T00:46:37.731Z,0
2016-02-10T00:47:37.703Z,0
2016-02-10T00:48:37.627Z,0
2016-02-10T00:49:37.567Z,0
2016-02-10T00:50:37.617Z,0
2016-02-10T00:51:37.557Z,0
2016-02-10T00:52:37.356Z,0
2016-02-10T00:53:37.389Z,0
2016-02-10T00:54:37.378Z,0
2016-02-10T00:55:37.286Z,0
2016-02-10T00:56:37.273Z,0
2016-02-10T00:57:37.245Z,0
2016-02-10T00:58:37.091Z,0
2016-02-10T00:59:36.938Z,0
2016-02-10T01:00:36.800Z,0
2016-02-10T01:01:36.677Z,0
2016-02-10T01:02:36.602Z,0
2016-02-10T01:03:36.511Z,0
2016-02-10T01:04:36.483Z,0
2016-02-10T01:05:36.407Z,0
2016-02-10T01:06:36.362Z,0
2016-02-10T01:07:36.288Z,0
2016-02-10T01:08:36.227Z,0
2016-02-10T01:09:36.169Z,0
2016-02-10T01:10:36.142Z,0
2016-02-10T01:11:36.081Z,0
2016-02-10T01:12:35.990Z,0
2016-02-10T01:13:35.978Z,0
2016-02-10T01:14:35.902Z,0
2016-02-10T01:15:35.826Z,0
2016-02-10T01:16:35.767Z,0
2016-02-10T01:17:35.722Z,0
2016-02-10T01:18:35.647Z,0
2016-02-10T01:19:35.650Z,0
2016-02-10T01:20:35.605Z,0
2016-02-10T01:21:35.656Z,0
2016-02-10T01:22:35.611Z,0
2016-02-10T01:23:35.472Z,0
2016-02-10T01:24:35.382Z,0
2016-02-10T01:25:35.497Z,0
2016-02-10T01:26:35.344Z,0
2016-02-10T01:27:35.236Z,0
2016-02-10T01:28:35.005Z,0
2016-02-10T01:29:35.102Z,0
2016-02-10T01:30:35.088Z,0
2016-02-10T01:31:35.013Z,0
2016-02-10T01:32:34.953Z,0
2016-02-10T01:33:34.877Z,0
2016-02-10T01:34:34.976Z,0
2016-02-10T01:35:34.744Z,0
2016-02-10T01:36:34.731Z,0
2016-02-10T01:37:34.671Z,0
2016-02-10T01:38:34.564Z,0
2016-02-10T01:39:34.551Z,0
2016-02-10T01:40:34.458Z,0
2016-02-10T01:41:34.383Z,0
2016-02-10T01:42:34.401Z,0
2016-02-10T01:43:34.343Z,0
2016-02-10T01:44:34.235Z,0
2016-02-10T01:45:34.144Z,0
2016-02-10T01:46:34.163Z,0
2016-02-10T01:47:33.900Z,0
2016-02-10T01:48:33.995Z,0
2016-02-10T01:49:33.937Z,0
2016-02-10T01:50:33.893Z,0
2016-02-10T01:51:33.802Z,0
2016-02-10T01:52:33.790Z,0
2016-02-10T01:53:33.760Z,0
2016-02-10T01:54:33.670Z,0
2016-02-10T01:55:33.594Z,0
2016-02-10T01:56:33.612Z,0
2016-02-10T01:57:33.520Z,0
2016-02-10T01:58:33.446Z,0
2016-02-10T01:59:33.340Z,0
2016-02-10T02:00:33.390Z,0
2016-02-10T02:01:33.330Z,0
2016-02-10T02:02:33.739Z,0
2016-02-10T02:03:33.101Z,0
2016-02-10T02:04:33.229Z,0
2016-02-10T02:05:33.075Z,0
2016-02-10T02:06:32.984Z,0
2016-02-10T02:07:32.911Z,0
2016-02-10T02:08:32.867Z,0
2016-02-10T02:09:32.822Z,0
2016-02-10T02:10:32.747Z,0
2016-02-10T02:11:32.813Z,0
2016-02-10T02:12:32.660Z,0
2016-02-10T02:13:32.585Z,0
2016-02-10T02:14:32.619Z,0
2016-02-10T02:15:32.465Z,0
2016-02-10T02:16:32.421Z,0
2016-02-10T02:17:32.440Z,0
2016-02-10T02:18:32.317Z,0
2016-02-10T02:19:32.257Z,0
2016-02-10T02:20:32.182Z,0
2016-02-10T02:21:32.090Z,0
2016-02-10T02:22:32.062Z,0
2016-02-10T02:23:31.987Z,0
2016-02-10T02:24:31.926Z,0
2016-02-10T02:25:31.883Z,0
2016-02-10T02:26:31.824Z,0
2016-02-10T02:27:31.826Z,0
2016-02-10T02:28:31.751Z,0
2016-02-10T02:29:31.660Z,0
2016-02-10T02:30:31.710Z,0
2016-02-10T02:31:31.619Z,0
2016-02-10T02:32:31.403Z,0
2016-02-10T02:33:31.452Z,0
2016-02-10T02:34:31.501Z,0
2016-02-10T02:35:31.317Z,0
2016-02-10T02:36:31.381Z,0
2016-02-10T02:37:31.167Z,0
2016-02-10T02:38:31.153Z,0
2016-02-10T02:39:31.093Z,0
2016-02-10T02:40:31.034Z,0
2016-02-10T02:41:30.942Z,0
2016-02-10T02:42:30.898Z,0
2016-02-10T02:43:30.826Z,0
2016-02-10T02:44:30.766Z,0
2016-02-10T02:45:30.753Z,0
2016-02-10T02:46:30.662Z,0
2016-02-10T02:47:30.617Z,0
2016-02-10T02:48:30.636Z,0
2016-02-10T02:49:30.483Z,0
2016-02-10T02:50:30.485Z,0
2016-02-10T02:51:30.396Z,0
2016-02-10T02:52:30.301Z,0
2016-02-10T02:53:30.279Z,0
2016-02-10T02:54:30.176Z,0
2016-02-10T02:55:29.979Z,0
2016-02-10T02:56:30.034Z,0
2016-02-10T02:57:29.980Z,0
2016-02-10T02:58:29.900Z,0
2016-02-10T02:59:29.821Z,0
2016-02-10T03:00:29.758Z,0
2016-02-10T03:01:29.757Z,0
2016-02-10T03:02:29.693Z,0
2016-02-10T03:03:29.632Z,0
2016-02-10T03:04:29.585Z,0
2016-02-10T03:05:29.478Z,0
2016-02-10T03:06:29.416Z,0
2016-02-10T03:07:29.355Z,0
2016-02-10T03:08:29.375Z,0
2016-02-10T03:09:29.111Z,0
2016-02-10T03:10:28.441Z,0
2016-02-10T03:11:29.163Z,0
2016-02-10T03:12:29.071Z,0
2016-02-10T03:13:29.033Z,0
2016-02-10T03:14:29.005Z,0
2016-02-10T03:15:28.975Z,0
2016-02-10T03:16:28.839Z,0
2016-02-10T03:17:28.825Z,0
2016-02-10T03:18:28.827Z,0
2016-02-10T03:19:28.691Z,0
2016-02-10T03:20:28.617Z,0
2016-02-10T03:21:28.557Z,0
2016-02-10T03:22:28.357Z,0
2016-02-10T03:23:28.453Z,0
2016-02-10T03:24:28.377Z,0
2016-02-10T03:25:28.318Z,0
2016-02-10T03:26:28.227Z,0
2016-02-10T03:27:28.230Z,0
2016-02-10T03:28:28.170Z,0
2016-02-10T03:29:28.048Z,0
2016-02-10T03:30:28.018Z,0
2016-02-10T03:31:28.007Z,0
2016-02-10T03:32:27.962Z,0
2016-02-10T03:33:27.729Z,0
2016-02-10T03:34:27.858Z,0
2016-02-10T03:35:27.767Z,0
2016-02-10T03:36:27.707Z,0
2016-02-10T03:37:27.710Z,0
2016-02-10T03:38:27.634Z,0
2016-02-10T03:39:27.559Z,0
2016-02-10T03:40:27.453Z,0
2016-02-10T03:41:27.423Z,0
2016-02-10T03:42:27.395Z,0
2016-02-10T03:43:27.336Z,0
2016-02-10T03:44:27.265Z,0
2016-02-10T03:45:27.190Z,0
2016-02-10T03:46:27.099Z,0
2016-02-10T03:47:27.070Z,0
2016-02-10T03:48:27.058Z,0
2016-02-10T03:49:26.968Z,0
2016-02-10T03:50:26.940Z,0
2016-02-10T03:51:26.864Z,0
2016-02-10T03:52:26.804Z,0
2016-02-10T03:53:26.744Z,0
2016-02-10T03:54:26.701Z,0
2016-02-10T03:55:26.641Z,0
2016-02-10T03:56:26.565Z,0
2016-02-10T03:57:26.568Z,0
2016-02-10T03:58:26.462Z,0
2016-02-10T03:59:26.371Z,0
2016-02-10T04:00:26.388Z,0
2016-02-10T04:01:26.282Z,0
2016-02-10T04:02:26.223Z,0
2016-02-10T04:03:26.193Z,0
2016-02-10T04:04:26.103Z,0
2016-02-10T04:05:26.151Z,0
2016-02-10T04:06:26.030Z,0
2016-02-10T04:07:25.892Z,0
2016-02-10T04:08:25.879Z,0
2016-02-10T04:09:25.805Z,0
2016-02-10T04:10:25.745Z,0
2016-02-10T04:11:25.763Z,0
2016-02-10T04:12:25.640Z,0
2016-02-10T04:13:25.581Z,0
2016-02-10T04:14:25.537Z,0
2016-02-10T04:15:25.509Z,0
2016-02-10T04:16:25.419Z,0
2016-02-10T04:17:25.359Z,0
2016-02-10T04:18:25.347Z,0
2016-02-10T04:19:25.224Z,0
2016-02-10T04:20:25.164Z,0
2016-02-10T04:21:25.105Z,0
2016-02-10T04:22:25.029Z,0
2016-02-10T04:23:24.985Z,0
2016-02-10T04:24:25.050Z,0
2016-02-10T04:25:24.991Z,0
2016-02-10T04:26:24.872Z,0
2016-02-10T04:27:24.797Z,0
2016-02-10T04:28:24.832Z,0
2016-02-10T04:29:24.724Z,0
2016-02-10T04:30:24.587Z,0
2016-02-10T04:31:24.543Z,0
2016-02-10T04:32:24.482Z,0
2016-02-10T04:33:24.438Z,0
2016-02-10T04:34:24.347Z,0
2016-02-10T04:35:24.319Z,0
2016-02-10T04:36:24.274Z,0
2016-02-10T04:37:24.231Z,0
2016-02-10T04:38:24.171Z,0
2016-02-10T04:39:24.095Z,0
2016-02-10T04:40:24.035Z,0
2016-02-10T04:41:24.007Z,0
2016-02-10T04:42:23.915Z,0
2016-02-10T04:43:23.951Z,0
2016-02-10T04:44:23.796Z,0
2016-02-10T04:45:23.785Z,0
2016-02-10T04:46:23.713Z,0
2016-02-10T04:47:23.638Z,0
2016-02-10T04:48:23.655Z,0
2016-02-10T04:49:23.533Z,0
2016-02-10T04:50:23.552Z,0
2016-02-10T04:51:23.444Z,0
2016-02-10T04:52:23.416Z,0
2016-02-10T04:53:23.310Z,0
2016-02-10T04:54:23.188Z,0
2016-02-10T04:55:23.176Z,0
2016-02-10T04:56:23.069Z,0
2016-02-10T04:57:23.086Z,0
2016-02-10T04:58:22.996Z,0
2016-02-10T04:59:22.920Z,0
2016-02-10T05:00:22.939Z,0
2016-02-10T05:01:22.785Z,0
2016-02-10T05:02:22.742Z,0
2016-02-10T05:03:22.760Z,0
2016-02-10T05:04:22.748Z,0
2016-02-10T05:05:22.422Z,0
2016-02-10T05:06:22.549Z,0
2016-02-10T05:07:22.506Z,0
2016-02-10T05:08:22.492Z,0
2016-02-10T05:09:22.308Z,0
2016-02-10T05:10:22.283Z,0
2016-02-10T05:11:22.222Z,0
2016-02-10T05:12:22.209Z,0
2016-02-10T05:13:22.150Z,0
2016-02-10T05:14:22.089Z,0
2016-02-10T05:15:22.060Z,0
2016-02-10T05:16:21.939Z,0
2016-02-10T05:17:21.714Z,0
2016-02-10T05:18:21.857Z,0
2016-02-10T05:19:21.782Z,0
2016-02-10T05:20:21.722Z,0
2016-02-10T05:21:21.679Z,0
2016-02-10T05:22:21.618Z,0
2016-02-10T05:23:21.558Z,0
2016-02-10T05:24:21.514Z,0
2016-02-10T05:25:21.423Z,0
2016-02-10T05:26:21.425Z,0
2016-02-10T05:27:21.304Z,0
2016-02-10T05:28:21.291Z,0
2016-02-10T05:29:21.231Z,0
2016-02-10T05:30:21.141Z,0
2016-02-10T05:31:21.096Z,0
2016-02-10T05:32:21.051Z,0
2016-02-10T05:33:20.993Z,0
2016-02-10T05:34:20.932Z,0
2016-02-10T05:35:20.841Z,0
2016-02-10T05:36:20.752Z,0
2016-02-10T05:37:20.770Z,0
2016-02-10T05:38:20.727Z,0
2016-02-10T05:39:20.636Z,0
2016-02-10T05:40:20.591Z,0
2016-02-10T05:41:20.499Z,0
2016-02-10T05:42:20.503Z,0
2016-02-10T05:43:20.474Z,0
2016-02-10T05:44:20.335Z,0
2016-02-10T05:45:20.449Z,0
2016-02-10T05:46:20.232Z,0
2016-02-10T05:47:20.253Z,0
2016-02-10T05:48:20.115Z,0
2016-02-10T05:49:20.039Z,0
2016-02-10T05:50:19.979Z,0
2016-02-10T05:51:19.966Z,0
2016-02-10T05:52:19.828Z,0
2016-02-10T05:53:19.832Z,0
2016-02-10T05:54:19.834Z,0
2016-02-10T05:55:19.681Z,0
2016-02-10T05:56:19.636Z,0
2016-02-10T05:57:19.686Z,0
2016-02-10T05:58:19.517Z,0
2016-02-10T05:59:19.488Z,0
2016-02-10T06:00:19.538Z,0
2016-02-10T06:01:19.368Z,0
2016-02-10T06:02:19.356Z,0
2016-02-10T06:03:19.250Z,0
2016-02-10T06:04:19.175Z,0
2016-02-10T06:05:18.973Z,0
2016-02-10T06:06:19.117Z,0
2016-02-10T06:07:18.979Z,0
2016-02-10T06:08:18.950Z,0
2016-02-10T06:09:19.000Z,0
2016-02-10T06:10:18.847Z,0
2016-02-10T06:11:18.834Z,0
2016-02-10T06:12:18.761Z,0
2016-02-10T06:13:18.638Z,0
2016-02-10T06:14:18.610Z,0
2016-02-10T06:15:18.597Z,0
2016-02-10T06:16:18.554Z,0
2016-02-10T06:17:18.385Z,0
2016-02-10T06:18:18.356Z,0
2016-02-10T06:19:18.343Z,0
2016-02-10T06:20:17.504Z,0
2016-02-10T06:21:18.241Z,0
2016-02-10T06:22:18.274Z,0
2016-02-10T06:23:18.229Z,0
2016-02-10T06:24:18.030Z,0
2016-02-10T06:25:17.985Z,0
2016-02-10T06:26:17.957Z,0
2016-02-10T06:27:17.882Z,0
2016-02-10T06:28:17.760Z,0
2016-02-10T06:29:17.763Z,0
2016-02-10T06:30:17.671Z,0
2016-02-10T06:31:17.609Z,0
2016-02-10T06:32:17.565Z,0
2016-02-10T06:33:17.521Z,0
2016-02-10T06:34:17.399Z,0
2016-02-10T06:35:17.417Z,0
2016-02-10T06:36:17.295Z,0
2016-02-10T06:37:17.454Z,0
2016-02-10T06:38:17.190Z,0
2016-02-10T06:39:17.146Z,0
2016-02-10T06:40:17.071Z,0
2016-02-10T06:41:17.011Z,0
2016-02-10T06:42:17.045Z,0
2016-02-10T06:43:16.939Z,0
2016-02-10T06:44:16.894Z,4
2016-02-10T06:45:16.695Z,0
2016-02-10T06:46:16.915Z,0
2016-02-10T06:47:16.796Z,0
2016-02-10T06:48:16.673Z,0
2016-02-10T06:49:16.442Z,0
2016-02-10T06:50:16.476Z,0
2016-02-10T06:51:16.776Z,0
2016-02-10T06:52:16.387Z,0
2016-02-10T06:53:16.375Z,0
2016-02-10T06:54:16.268Z,4
2016-02-10T06:55:16.209Z,0
2016-02-10T06:56:16.150Z,0
2016-02-10T06:57:16.137Z,0
2016-02-10T06:58:16.124Z,4
2016-02-10T06:59:16.033Z,4
2016-02-10T07:00:15.771Z,0
2016-02-10T07:01:16.038Z,4
2016-02-10T07:02:15.823Z,0
2016-02-10T07:03:15.747Z,0
2016-02-10T07:04:15.704Z,0
2016-02-10T07:05:15.661Z,0
2016-02-10T07:06:15.538Z,0
2016-02-10T07:07:15.604Z,0
2016-02-10T07:08:15.591Z,0
2016-02-10T07:09:15.609Z,0
2016-02-10T07:10:15.409Z,4
2016-02-10T07:11:15.303Z,4
2016-02-10T07:12:15.413Z,4
2016-02-10T07:13:15.263Z,4
2016-02-10T07:14:15.202Z,0
2016-02-10T07:15:15.080Z,4
2016-02-10T07:16:14.974Z,4
2016-02-10T07:17:14.992Z,4
2016-02-10T07:18:14.892Z,4
2016-02-10T07:19:14.879Z,4
2016-02-10T07:20:14.757Z,4
2016-02-10T07:21:14.775Z,4
2016-02-10T07:22:14.700Z,4
2016-02-10T07:23:14.577Z,4
2016-02-10T07:24:14.549Z,4
2016-02-10T07:25:14.474Z,4
2016-02-10T07:26:14.444Z,4
2016-02-10T07:27:14.400Z,4
2016-02-10T07:28:14.341Z,4
2016-02-10T07:29:14.280Z,8
2016-02-10T07:30:14.206Z,8
2016-02-10T07:31:14.178Z,4
2016-02-10T07:32:14.072Z,4
2016-02-10T07:33:14.011Z,8
2016-02-10T07:34:14.014Z,8
2016-02-10T07:35:13.892Z,8
2016-02-10T07:36:13.816Z,8
2016-02-10T07:37:13.835Z,8
2016-02-10T07:38:13.715Z,8
2016-02-10T07:39:13.685Z,8
2016-02-10T07:40:13.720Z,8
2016-02-10T07:41:13.629Z,8
2016-02-10T07:42:13.568Z,8
2016-02-10T07:43:13.462Z,8
2016-02-10T07:44:13.559Z,8
2016-02-10T07:45:13.484Z,8
2016-02-10T07:46:13.238Z,8
2016-02-10T07:47:13.240Z,8
2016-02-10T07:48:13.149Z,8
2016-02-10T07:49:13.088Z,8
2016-02-10T07:50:13.030Z,4
2016-02-10T07:51:13.079Z,4
2016-02-10T07:52:12.911Z,8
2016-02-10T07:53:12.866Z,8
2016-02-10T07:54:12.822Z,8
2016-02-10T07:55:12.872Z,8
2016-02-10T07:56:12.718Z,8
2016-02-10T07:57:12.611Z,8
2016-02-10T07:58:12.566Z,8
2016-02-10T07:59:12.491Z,8
2016-02-10T08:00:12.446Z,8
2016-02-10T08:01:12.372Z,12
2016-02-10T08:02:12.468Z,8
2016-02-10T08:03:12.317Z,8
2016-02-10T08:04:12.101Z,8
2016-02-10T08:05:12.166Z,8
2016-02-10T08:06:12.124Z,8
2016-02-10T08:07:12.158Z,12
2016-02-10T08:08:11.988Z,8
2016-02-10T08:09:11.913Z,12
2016-02-10T08:10:12.088Z,12
2016-02-10T08:11:11.872Z,12
2016-02-10T08:12:11.780Z,12
2016-02-10T08:13:11.768Z,12
2016-02-10T08:14:11.663Z,12
2016-02-10T08:15:11.619Z,16
2016-02-10T08:16:11.622Z,16
2016-02-10T08:17:11.469Z,16
2016-02-10T08:18:11.424Z,16
2016-02-10T08:19:11.385Z,20
2016-02-10T08:20:11.810Z,16
2016-02-10T08:21:11.390Z,20
2016-02-10T08:22:11.206Z,20
2016-02-10T08:23:11.100Z,20
2016-02-10T08:24:11.118Z,24
2016-02-10T08:25:10.980Z,20
2016-02-10T08:26:11.140Z,20
2016-02-10T08:27:10.907Z,24
2016-02-10T08:28:10.849Z,24
2016-02-10T08:29:10.773Z,24
2016-02-10T08:30:10.744Z,28
2016-02-10T08:31:10.670Z,28
2016-02-10T08:32:10.626Z,28
2016-02-10T08:33:10.769Z,28
2016-02-10T08:34:10.492Z,28
2016-02-10T08:35:10.603Z,32
2016-02-10T08:36:10.433Z,32
2016-02-10T08:37:10.531Z,36
2016-02-10T08:38:10.345Z,36
2016-02-10T08:39:10.240Z,36
2016-02-10T08:40:10.165Z,36
2016-02-10T08:41:10.182Z,36
2016-02-10T08:42:10.544Z,44
2016-02-10T08:43:10.047Z,48
2016-02-10T08:44:10.081Z,48
2016-02-10T08:45:09.913Z,52
2016-02-10T08:46:09.790Z,52
2016-02-10T08:47:10.012Z,56
2016-02-10T08:48:09.671Z,60
2016-02-10T08:49:09.799Z,68
2016-02-10T08:50:09.558Z,72
2016-02-10T08:51:09.561Z,80
2016-02-10T08:52:09.579Z,84
2016-02-10T08:53:09.738Z,120
2016-02-10T08:54:09.382Z,92
2016-02-10T08:55:09.291Z,104
2016-02-10T08:56:09.247Z,80
2016-02-10T08:57:09.172Z,72
2016-02-10T08:58:09.300Z,64
2016-02-10T08:59:09.100Z,52
2016-02-10T09:00:09.023Z,92
2016-02-10T09:01:09.073Z,100
2016-02-10T09:02:08.937Z,68
2016-02-10T09:03:08.861Z,48
2016-02-10T09:04:08.864Z,48
2016-02-10T09:05:08.787Z,52
2016-02-10T09:06:08.916Z,100
2016-02-10T09:07:08.903Z,292
2016-02-10T09:08:08.593Z,188
2016-02-10T09:09:08.517Z,240
2016-02-10T09:10:08.473Z,148
2016-02-10T09:11:08.601Z,420
2016-02-10T09:12:08.431Z,112
2016-02-10T09:13:08.372Z,376
2016-02-10T09:14:08.547Z,320
2016-02-10T09:15:08.363Z,232
2016-02-10T09:16:08.287Z,408
2016-02-10T09:17:08.134Z,356
2016-02-10T09:18:08.152Z,376
2016-02-10T09:19:07.998Z,424
2016-02-10T09:20:07.908Z,288
2016-02-10T09:21:08.024Z,316
2016-02-10T09:22:07.824Z,104
2016-02-10T09:23:07.795Z,44
2016-02-10T09:24:07.813Z,48
2016-02-10T09:25:07.769Z,76
2016-02-10T09:26:07.694Z,80
2016-02-10T09:27:07.635Z,28
2016-02-10T09:28:07.513Z,28
2016-02-10T09:29:07.436Z,32
2016-02-10T09:30:07.329Z,24
2016-02-10T09:31:07.692Z,28
2016-02-10T09:32:07.336Z,24
2016-02-10T09:33:07.120Z,24
2016-02-10T09:34:07.123Z,24
2016-02-10T09:35:07.141Z,24
2016-02-10T09:36:07.097Z,24
2016-02-10T09:37:06.991Z,24
2016-02-10T09:38:06.868Z,24
2016-02-10T09:39:06.839Z,68
2016-02-10T09:40:06.873Z,36
2016-02-10T09:41:06.689Z,32
2016-02-10T09:42:06.942Z,32
2016-02-10T09:43:06.647Z,32
2016-02-10T09:44:06.807Z,48
2016-02-10T09:45:06.388Z,40
2016-02-10T09:46:06.563Z,32
2016-02-10T09:47:06.408Z,28
2016-02-10T09:48:06.349Z,28
2016-02-10T09:49:06.556Z,32
2016-02-10T09:50:06.325Z,24
2016-02-10T09:51:06.141Z,24
2016-02-10T09:52:06.096Z,28
2016-02-10T09:53:06.069Z,28
2016-02-10T09:54:06.213Z,28
2016-02-10T09:55:06.044Z,32
2016-02-10T09:56:05.953Z,28
2016-02-10T09:57:05.844Z,24
2016-02-10T09:58:06.111Z,28
2016-02-10T09:59:05.692Z,36
2016-02-10T10:00:05.680Z,44
2016-02-10T10:01:05.557Z,44
2016-02-10T10:02:05.653Z,40
2016-02-10T10:03:05.530Z,44
2016-02-10T10:04:05.455Z,48
2016-02-10T10:05:05.364Z,52
2016-02-10T10:06:05.493Z,148
2016-02-10T10:07:05.245Z,52
2016-02-10T10:08:05.170Z,132
2016-02-10T10:09:05.158Z,260
2016-02-10T10:10:05.097Z,48
2016-02-10T10:11:05.038Z,308
2016-02-10T10:12:04.994Z,316
2016-02-10T10:13:04.903Z,364
2016-02-10T10:14:04.860Z,480
2016-02-10T10:15:05.159Z,512
2016-02-10T10:16:04.709Z,280
2016-02-10T10:17:04.822Z,160
2016-02-10T10:18:04.622Z,572
2016-02-10T10:19:04.624Z,516
2016-02-10T10:20:04.502Z,552
2016-02-10T10:21:04.474Z,320
2016-02-10T10:22:04.492Z,580
2016-02-10T10:23:04.325Z,152
2016-02-10T10:24:04.265Z,640
2016-02-10T10:25:04.237Z,156
2016-02-10T10:26:04.271Z,288
2016-02-10T10:27:04.101Z,212
2016-02-10T10:28:04.354Z,340
2016-02-10T10:29:03.981Z,560
2016-02-10T10:30:03.937Z,184
2016-02-10T10:31:04.018Z,92
2016-02-10T10:32:03.865Z,392
2016-02-10T10:33:04.070Z,616
2016-02-10T10:34:03.746Z,96
2016-02-10T10:35:03.734Z,56
2016-02-10T10:36:03.674Z,40
2016-02-10T10:37:03.395Z,32
2016-02-10T10:38:03.507Z,32
2016-02-10T10:39:03.588Z,36
2016-02-10T10:40:03.668Z,32
2016-02-10T10:41:02.640Z,32
2016-02-10T10:42:03.299Z,32
2016-02-10T10:43:03.271Z,40
2016-02-10T10:44:02.445Z,40
2016-02-10T10:45:03.137Z,28
2016-02-10T10:46:03.092Z,24
2016-02-10T10:47:03.032Z,24
2016-02-10T10:48:02.909Z,24
2016-02-10T10:49:02.928Z,28
2016-02-10T10:50:02.839Z,28
2016-02-10T10:51:03.060Z,28
2016-02-10T10:52:02.802Z,24
2016-02-10T10:53:02.744Z,24
2016-02-10T10:54:02.716Z,24
2016-02-10T10:55:02.547Z,32
2016-02-10T10:56:02.752Z,32
2016-02-10T10:57:02.459Z,32
2016-02-10T10:58:02.446Z,52
2016-02-10T10:59:02.480Z,64
2016-02-10T11:00:02.233Z,52
2016-02-10T11:01:02.282Z,76
2016-02-10T11:02:02.238Z,312
2016-02-10T11:03:02.194Z,572
2016-02-10T11:04:02.431Z,152
2016-02-10T11:05:02.059Z,368
2016-02-10T11:06:01.999Z,468
2016-02-10T11:07:01.846Z,472
2016-02-10T11:08:01.802Z,400
2016-02-10T11:09:01.788Z,128
2016-02-10T11:10:01.682Z,52
2016-02-10T11:11:01.668Z,96
2016-02-10T11:12:01.625Z,56
2016-02-10T11:13:01.909Z,56
2016-02-10T11:14:01.458Z,80
2016-02-10T11:15:01.445Z,64
2016-02-10T11:16:01.372Z,108
2016-02-10T11:17:01.375Z,104
2016-02-10T11:18:01.222Z,48
2016-02-10T11:19:01.192Z,40
2016-02-10T11:20:01.072Z,32
2016-02-10T11:21:01.121Z,28
2016-02-10T11:22:01.093Z,32
2016-02-10T11:23:01.018Z,32
2016-02-10T11:24:00.866Z,32
2016-02-10T11:25:00.994Z,36
2016-02-10T11:26:00.887Z,36
2016-02-10T11:27:00.952Z,44
2016-02-10T11:28:00.830Z,48
2016-02-10T11:29:00.645Z,52
2016-02-10T11:30:00.694Z,64
2016-02-10T11:31:00.635Z,60
2016-02-10T11:32:00.482Z,68
2016-02-10T11:33:00.548Z,220
2016-02-10T11:34:00.331Z,200
2016-02-10T11:35:00.477Z,468
2016-02-10T11:36:00.276Z,116
2016-02-10T11:37:00.185Z,116
2016-02-10T11:38:00.266Z,148
2016-02-10T11:39:00.113Z,304
2016-02-10T11:40:00.052Z,324
2016-02-10T11:41:00.086Z,352
2016-02-10T11:41:59.964Z,320
2016-02-10T11:42:59.888Z,308
2016-02-10T11:43:59.829Z,228
2016-02-10T11:45:00.066Z,116
2016-02-10T11:45:59.710Z,248
2016-02-10T11:46:59.868Z,272
2016-02-10T11:47:58.855Z,280
2016-02-10T11:48:59.655Z,124
2016-02-10T11:49:59.720Z,216
2016-02-10T11:50:59.788Z,204
2016-02-10T11:51:59.447Z,236
2016-02-10T11:52:59.560Z,208
2016-02-10T11:53:59.375Z,80
2016-02-10T11:54:59.410Z,264
2016-02-10T11:55:59.224Z,256
2016-02-10T11:56:59.118Z,316
2016-02-10T11:57:59.027Z,348
2016-02-10T11:58:59.134Z,440
2016-02-10T11:59:59.093Z,348
2016-02-10T12:00:59.099Z,208
2016-02-10T12:01:58.962Z,184
2016-02-10T12:02:58.700Z,320
2016-02-10T12:03:58.660Z,208
2016-02-10T12:04:58.860Z,136
2016-02-10T12:05:58.655Z,236
2016-02-10T12:06:58.497Z,188
2016-02-10T12:07:58.494Z,216
2016-02-10T12:08:58.369Z,192
2016-02-10T12:09:58.246Z,116
2016-02-10T12:10:58.293Z,68
2016-02-10T12:11:58.200Z,152
2016-02-10T12:12:58.123Z,188
2016-02-10T12:13:58.187Z,180
2016-02-10T12:14:57.971Z,72
2016-02-10T12:15:58.035Z,72
2016-02-10T12:16:57.816Z,72
2016-02-10T12:17:57.772Z,68
2016-02-10T12:18:57.711Z,68
2016-02-10T12:19:57.730Z,48
2016-02-10T12:20:57.685Z,40
2016-02-10T12:21:57.624Z,36
2016-02-10T12:22:57.523Z,36
2016-02-10T12:23:57.462Z,36
2016-02-10T12:24:57.481Z,32
2016-02-10T12:25:57.343Z,32
2016-02-10T12:26:57.486Z,36
2016-02-10T12:27:57.255Z,116
2016-02-10T12:28:57.242Z,132
2016-02-10T12:29:57.494Z,104
2016-02-10T12:30:57.294Z,64
2016-02-10T12:31:57.172Z,56
2016-02-10T12:32:57.205Z,84
2016-02-10T12:33:57.147Z,120
2016-02-10T12:34:56.884Z,272
2016-02-10T12:35:56.950Z,168
2016-02-10T12:36:56.889Z,80
2016-02-10T12:37:56.751Z,188
2016-02-10T12:38:56.661Z,232
2016-02-10T12:39:56.553Z,92
2016-02-10T12:40:56.634Z,96
2016-02-10T12:41:56.653Z,92
2016-02-10T12:42:56.811Z,64
2016-02-10T12:43:56.377Z,60
2016-02-10T12:44:56.614Z,64
2016-02-10T12:45:56.132Z,68
2016-02-10T12:46:56.979Z,68
2016-02-10T12:47:56.232Z,52
2016-02-10T12:48:56.171Z,96
2016-02-10T12:49:55.940Z,68
2016-02-10T12:50:56.031Z,76
2016-02-10T12:51:56.143Z,72
2016-02-10T12:52:55.895Z,48
2016-02-10T12:53:55.726Z,40
2016-02-10T12:54:55.900Z,36
2016-02-10T12:55:55.981Z,28
2016-02-10T12:56:55.656Z,24
2016-02-10T12:57:55.518Z,20
2016-02-10T12:58:55.442Z,28
2016-02-10T12:59:55.539Z,32
2016-02-10T13:00:55.276Z,28
2016-02-10T13:01:55.342Z,28
2016-02-10T13:02:55.221Z,32
2016-02-10T13:03:55.254Z,36
2016-02-10T13:04:55.225Z,36
2016-02-10T13:05:55.243Z,36
2016-02-10T13:06:54.981Z,40
2016-02-10T13:07:55.077Z,44
2016-02-10T13:08:54.892Z,44
2016-02-10T13:09:55.085Z,44
2016-02-10T13:10:54.759Z,44
2016-02-10T13:11:54.949Z,44
2016-02-10T13:12:54.655Z,40
2016-02-10T13:13:54.689Z,40
2016-02-10T13:14:54.520Z,36
2016-02-10T13:15:54.538Z,36
2016-02-10T13:16:55.088Z,36
2016-02-10T13:17:54.356Z,36
2016-02-10T13:18:54.297Z,40
2016-02-10T13:19:54.394Z,40
2016-02-10T13:20:54.241Z,44
2016-02-10T13:21:54.305Z,48
2016-02-10T13:22:54.121Z,44
2016-02-10T13:23:54.639Z,40
2016-02-10T13:24:54.173Z,40
2016-02-10T13:25:53.895Z,36
2016-02-10T13:26:53.852Z,36
2016-02-10T13:27:53.917Z,36
2016-02-10T13:28:53.904Z,36
2016-02-10T13:29:53.845Z,36
2016-02-10T13:30:53.582Z,36
2016-02-10T13:31:53.507Z,36
2016-02-10T13:32:53.618Z,32
2016-02-10T13:33:53.449Z,36
2016-02-10T13:34:53.546Z,32
2016-02-10T13:35:53.346Z,36
2016-02-10T13:36:53.129Z,32
2016-02-10T13:37:53.288Z,32
2016-02-10T13:38:53.151Z,32
2016-02-10T13:39:53.466Z,32
2016-02-10T13:40:53.140Z,28
2016-02-10T13:41:52.971Z,28
2016-02-10T13:42:52.959Z,28
2016-02-10T13:43:52.886Z,24
2016-02-10T13:44:52.809Z,28
2016-02-10T13:45:52.844Z,24
2016-02-10T13:46:52.630Z,24
2016-02-10T13:47:52.726Z,28
2016-02-10T13:48:52.619Z,24
2016-02-10T13:49:52.637Z,28
2016-02-10T13:50:52.968Z,28
2016-02-10T13:51:52.393Z,24
2016-02-10T13:52:52.442Z,28
2016-02-10T13:53:52.430Z,28
2016-02-10T13:54:52.247Z,32
2016-02-10T13:55:52.170Z,32
2016-02-10T13:56:52.095Z,32
2016-02-10T13:57:52.051Z,32
2016-02-10T13:58:52.070Z,28
2016-02-10T13:59:51.931Z,28
2016-02-10T14:00:51.950Z,32
2016-02-10T14:01:51.900Z,28
2016-02-10T14:02:52.823Z,28
2016-02-10T14:03:52.005Z,28
2016-02-10T14:04:51.873Z,28
2016-02-10T14:05:51.865Z,28
2016-02-10T14:06:51.722Z,32
2016-02-10T14:07:51.394Z,32
2016-02-10T14:08:51.365Z,32
2016-02-10T14:09:51.103Z,32
2016-02-10T14:10:51.167Z,36
2016-02-10T14:11:51.060Z,40
2016-02-10T14:12:51.035Z,40
2016-02-10T14:13:50.869Z,36
2016-02-10T14:14:51.063Z,32
2016-02-10T14:15:50.774Z,28
2016-02-10T14:16:51.063Z,24
2016-02-10T14:17:51.175Z,24
2016-02-10T14:18:50.902Z,20
2016-02-10T14:19:50.777Z,24
2016-02-10T14:20:50.681Z,24
2016-02-10T14:21:50.683Z,28
2016-02-10T14:22:50.640Z,28
2016-02-10T14:23:49.783Z,24
2016-02-10T14:24:50.551Z,24
2016-02-10T14:25:50.397Z,24
2016-02-10T14:26:50.556Z,24
2016-02-10T14:27:50.247Z,24
2016-02-10T14:28:50.251Z,24